Hauptseite
METAR-TAF:

METAR-TAF

Flughäfen :

Oslo, Norwegen

Flughafen Oslo-Gardermoen

Breite: 60-12N, Länge: 011-05E, Höhe: 208 m

Beobachtung

Neuester Wetterbericht von vor 17 Minuten, um 21:50 UTC
Wind 2 kt aus Südost
Temperatur -6°C
Luftfeuchtigkeit 93%
Luftdruck 1036 hPa
Sichtweite: 5000 m
Durchbrochene Bewölkung in der Höhe von 1900 ft
Schnee leicht, feuchter Dunst

METAR: ENGM 242150Z 14002KT 5000 -SN BR BKN019 M06/M07 Q1036 TEMPO 2000 -SN VV012

Zeit: 23:07 (22:07 UTC)

Prognose

Gültige Prognose vom 24 um 18 UTC bis 25 um 18 UTC
Wind 5 kt aus Süd
Sichtweite 10 km oder mehr
Aufgelockert bewölkt in der Höhe von 1200 ft
Durchbrochene Bewölkung in der Höhe von 1800 ft
Schnee leicht
Zeitweise
vom 24 um 18 UTC bis 25 um 10 UTC
Sichtweite: 2000 m
Durchbrochene Bewölkung in der Höhe von 400 ft
Schnee, feuchter Dunst

TAF: ENGM 2418/2518 17005KT 9999 -SN SCT012 BKN018 TEMPO 2418/2510 2000 SN BR BKN004

Wetterbeobachtungen und Prognosen von mehr als 4000 Flughäfen (METAR und TAF Bericht).

Die verfügbaren Stationen werden durch gelbe und rote Markierungen auf der Karte dargestellt.

Führen Sie die Maus auf sie, um den Namen der Station zu sehen.

Darauf klicken, um die Beobachtung von Wetterbeobachtungen und Prognosen zu sehen.

Um die Karte zu ändern : klicken Sie auf den grünen Tasten mit einem schwarzen Kreuz Zum Vergrößern, auf den grünen Button mit einem Gedankenstrich zu verkleinern, oder auf die grünen Pfeile für benachbarte Karten.


METAR-TAF: